createdAt,value
2022-09-28T00:01:09.493Z,7.31
2022-09-28T00:03:36.413Z,7.32
2022-09-28T00:06:03.970Z,7.32
2022-09-28T00:08:30.325Z,7.35
2022-09-28T00:10:56.904Z,7.35
2022-09-28T00:13:23.694Z,7.36
2022-09-28T00:16:00.286Z,7.37
2022-09-28T00:18:26.745Z,7.41
2022-09-28T00:20:59.951Z,7.42
2022-09-28T00:23:26.182Z,7.45
2022-09-28T00:25:52.412Z,7.46
2022-09-28T00:28:18.671Z,7.45
2022-09-28T00:30:44.917Z,7.47
2022-09-28T00:33:11.160Z,7.48
2022-09-28T00:35:37.485Z,7.43
2022-09-28T00:38:03.849Z,7.45
2022-09-28T00:40:30.200Z,7.43
2022-09-28T00:42:56.490Z,7.40
2022-09-28T00:45:25.343Z,7.41
2022-09-28T00:47:55.003Z,7.38
2022-09-28T00:50:21.395Z,7.39
2022-09-28T00:52:53.572Z,7.33
2022-09-28T00:55:22.569Z,7.35
2022-09-28T00:57:51.763Z,7.36
2022-09-28T01:00:18.292Z,7.40
2022-09-28T01:02:45.102Z,7.38
2022-09-28T01:05:11.749Z,7.41
2022-09-28T01:07:38.853Z,7.37
2022-09-28T01:10:05.879Z,7.34
2022-09-28T01:12:32.191Z,7.35
2022-09-28T01:14:59.002Z,7.31
2022-09-28T01:17:44.373Z,7.30
2022-09-28T01:20:13.665Z,7.25
2022-09-28T01:22:58.200Z,7.22
2022-09-28T01:25:31.430Z,7.24
2022-09-28T01:27:59.690Z,7.27
2022-09-28T01:30:26.025Z,7.30
2022-09-28T01:33:05.278Z,7.29
2022-09-28T01:35:43.326Z,7.30
2022-09-28T01:38:13.295Z,7.29
2022-09-28T01:40:40.362Z,7.27
2022-09-28T01:43:08.687Z,7.31
2022-09-28T01:45:41.165Z,7.32
2022-09-28T01:48:08.553Z,7.31
2022-09-28T01:50:39.610Z,7.30
2022-09-28T01:53:11.297Z,7.28
2022-09-28T01:55:41.986Z,7.26
2022-09-28T01:58:18.858Z,7.27
2022-09-28T02:00:49.199Z,7.26
2022-09-28T02:03:19.065Z,7.28
2022-09-28T02:05:52.487Z,7.23
2022-09-28T02:08:26.804Z,7.25
2022-09-28T02:10:57.846Z,7.28
2022-09-28T02:13:27.884Z,7.24
2022-09-28T02:16:03.384Z,7.22
2022-09-28T02:18:29.758Z,7.20
2022-09-28T02:20:59.771Z,7.21
2022-09-28T02:23:26.750Z,7.24
2022-09-28T02:25:55.799Z,7.25
2022-09-28T02:28:22.066Z,7.25
2022-09-28T02:30:48.333Z,7.24
2022-09-28T02:33:20.606Z,7.23
2022-09-28T02:35:47.045Z,7.25
2022-09-28T02:38:14.131Z,7.22
2022-09-28T02:40:43.382Z,7.24
2022-09-28T02:43:26.789Z,7.28
2022-09-28T02:46:02.294Z,7.22
2022-09-28T02:48:43.244Z,7.18
2022-09-28T02:51:28.787Z,7.20
2022-09-28T02:53:55.066Z,7.19
2022-09-28T02:56:38.803Z,7.17
2022-09-28T02:59:12.819Z,7.15
2022-09-28T03:01:51.251Z,7.18
2022-09-28T03:04:35.835Z,7.18
2022-09-28T03:07:20.816Z,7.20
2022-09-28T03:09:55.986Z,7.19
2022-09-28T03:12:23.517Z,7.23
2022-09-28T03:15:05.753Z,7.21
2022-09-28T03:17:32.008Z,7.20
2022-09-28T03:19:58.249Z,7.18
2022-09-28T03:22:24.495Z,7.18
2022-09-28T03:24:50.779Z,7.16
2022-09-28T03:27:17.017Z,7.18
2022-09-28T03:29:43.275Z,7.15
2022-09-28T03:32:09.499Z,7.12
2022-09-28T03:34:35.738Z,7.13
2022-09-28T03:37:02.031Z,7.12
2022-09-28T03:39:28.307Z,7.14
2022-09-28T03:41:54.543Z,7.11
2022-09-28T03:44:20.789Z,7.10
2022-09-28T03:46:47.023Z,7.11
2022-09-28T03:49:13.419Z,7.13
2022-09-28T03:51:39.749Z,7.15
2022-09-28T03:54:06.049Z,7.17
2022-09-28T03:56:32.363Z,7.15
2022-09-28T03:58:58.628Z,7.15
2022-09-28T04:01:24.976Z,7.17
2022-09-28T04:03:57.479Z,7.19
2022-09-28T04:06:24.491Z,7.19
2022-09-28T04:08:51.103Z,7.13
2022-09-28T04:11:17.652Z,7.13
2022-09-28T04:13:44.004Z,7.08
2022-09-28T04:16:10.732Z,7.06
2022-09-28T04:18:37.060Z,7.05
2022-09-28T04:21:06.597Z,7.05
2022-09-28T04:23:34.534Z,7.05
2022-09-28T04:26:00.832Z,7.02
2022-09-28T04:28:45.721Z,6.99
2022-09-28T04:31:13.381Z,6.98
2022-09-28T04:33:39.649Z,6.91
2022-09-28T04:36:06.161Z,6.90
2022-09-28T04:38:51.783Z,6.84
2022-09-28T04:41:19.344Z,6.81
2022-09-28T04:43:48.451Z,6.79
2022-09-28T04:46:14.840Z,6.75
2022-09-28T04:48:41.321Z,6.68
2022-09-28T04:51:07.726Z,6.70
2022-09-28T04:53:35.034Z,6.69
2022-09-28T04:56:19.581Z,6.72
2022-09-28T04:58:50.329Z,6.78
2022-09-28T05:01:19.816Z,6.74
2022-09-28T05:03:46.214Z,6.80
2022-09-28T05:06:15.950Z,6.76
2022-09-28T05:08:42.673Z,6.74
2022-09-28T05:11:11.458Z,6.71
2022-09-28T05:13:45.361Z,6.71
2022-09-28T05:16:12.773Z,6.73
2022-09-28T05:18:39.401Z,6.76
2022-09-28T05:21:12.941Z,6.82
2022-09-28T05:23:39.752Z,6.85
2022-09-28T05:26:06.312Z,6.86
2022-09-28T05:28:33.248Z,6.87
2022-09-28T05:31:03.552Z,6.92
2022-09-28T05:33:31.000Z,6.88
2022-09-28T05:36:01.024Z,6.85
2022-09-28T05:38:28.353Z,6.83
2022-09-28T05:40:54.705Z,6.80
2022-09-28T05:43:21.134Z,6.86
2022-09-28T05:45:51.615Z,6.84
2022-09-28T05:48:21.477Z,6.79
2022-09-28T05:50:52.206Z,6.82
2022-09-28T05:53:18.446Z,6.88
2022-09-28T05:55:44.722Z,6.92
2022-09-28T05:58:11.236Z,6.94
2022-09-28T06:00:37.520Z,6.90
2022-09-28T06:03:08.680Z,6.86
2022-09-28T06:05:36.229Z,6.86
2022-09-28T06:08:04.314Z,6.91
2022-09-28T06:10:31.162Z,6.91
2022-09-28T06:12:57.858Z,6.93
2022-09-28T06:15:25.457Z,6.94
2022-09-28T06:18:09.504Z,7.00
2022-09-28T06:20:37.171Z,6.98
2022-09-28T06:23:03.836Z,7.00
2022-09-28T06:25:30.251Z,7.01
2022-09-28T06:28:02.735Z,7.01
2022-09-28T06:30:30.240Z,7.00
2022-09-28T06:32:57.941Z,7.02
2022-09-28T06:35:25.437Z,7.00
2022-09-28T06:37:51.978Z,7.00
2022-09-28T06:40:19.073Z,7.01
2022-09-28T06:42:45.397Z,7.07
2022-09-28T06:45:11.694Z,7.09
2022-09-28T06:47:37.945Z,7.11
2022-09-28T06:50:12.251Z,7.11
2022-09-28T06:52:38.560Z,7.13
2022-09-28T06:55:05.044Z,7.17
2022-09-28T06:57:31.291Z,7.21
2022-09-28T06:59:57.542Z,7.20
2022-09-28T07:02:23.847Z,7.18
2022-09-28T07:04:50.163Z,7.18
2022-09-28T07:07:16.522Z,7.18
2022-09-28T07:09:48.143Z,7.17
2022-09-28T07:12:16.644Z,7.18
2022-09-28T07:14:47.808Z,7.17
2022-09-28T07:17:14.975Z,7.19
2022-09-28T07:19:41.443Z,7.20
2022-09-28T07:22:07.896Z,7.22
2022-09-28T07:24:34.266Z,7.22
2022-09-28T07:27:01.869Z,7.21
2022-09-28T07:29:28.237Z,7.21
2022-09-28T07:31:54.550Z,7.24
2022-09-28T07:34:23.059Z,7.21
2022-09-28T07:36:49.314Z,7.24
2022-09-28T07:39:15.568Z,7.22
2022-09-28T07:41:42.983Z,7.21
2022-09-28T07:44:09.238Z,7.22
2022-09-28T07:46:35.990Z,7.18
2022-09-28T07:49:08.301Z,7.13
2022-09-28T07:51:37.789Z,7.10
2022-09-28T07:54:04.061Z,7.15
2022-09-28T07:56:30.940Z,7.21
2022-09-28T07:58:57.178Z,7.26
2022-09-28T08:01:23.473Z,7.35
2022-09-28T08:03:49.752Z,7.39
2022-09-28T08:06:16.952Z,7.47
2022-09-28T08:08:44.584Z,7.53
2022-09-28T08:11:12.503Z,7.58
2022-09-28T08:13:38.832Z,7.70
2022-09-28T08:16:05.800Z,7.72
2022-09-28T08:18:32.155Z,7.69
2022-09-28T08:21:17.278Z,7.73
2022-09-28T08:23:43.565Z,7.73
2022-09-28T08:26:14.584Z,7.82
2022-09-28T08:28:43.104Z,7.76
2022-09-28T08:31:09.798Z,7.74
2022-09-28T08:33:36.347Z,7.80
2022-09-28T08:36:04.247Z,7.78
2022-09-28T08:38:31.319Z,7.76
2022-09-28T08:41:09.722Z,7.88
2022-09-28T08:43:51.267Z,7.90
2022-09-28T08:46:22.681Z,7.95
2022-09-28T08:49:23.803Z,8.09
2022-09-28T08:52:07.711Z,8.21
2022-09-28T08:54:40.494Z,8.19
2022-09-28T08:57:14.633Z,8.32
2022-09-28T08:59:52.063Z,8.42
2022-09-28T09:02:22.489Z,8.57
2022-09-28T09:04:49.280Z,8.73
2022-09-28T09:07:18.303Z,8.68
2022-09-28T09:09:50.782Z,8.57
2022-09-28T09:12:27.943Z,8.60
2022-09-28T09:15:11.695Z,8.60
2022-09-28T09:17:52.813Z,8.65
2022-09-28T09:20:23.390Z,8.70
2022-09-28T09:22:58.579Z,8.67
2022-09-28T09:25:47.640Z,8.72
2022-09-28T09:28:31.596Z,8.70
2022-09-28T09:31:18.606Z,8.65
2022-09-28T09:34:12.684Z,8.54
2022-09-28T09:36:45.870Z,8.39
2022-09-28T09:39:12.106Z,8.34
2022-09-28T09:41:55.962Z,8.32
2022-09-28T09:44:39.079Z,8.47
2022-09-28T09:47:13.421Z,8.53
2022-09-28T09:49:43.260Z,8.59
2022-09-28T09:52:18.053Z,8.76
2022-09-28T09:55:05.532Z,8.91
2022-09-28T09:57:39.541Z,8.99
2022-09-28T10:00:12.085Z,9.12
2022-09-28T10:02:39.178Z,9.21
2022-09-28T10:05:11.519Z,9.30
2022-09-28T10:07:46.967Z,9.38
2022-09-28T10:10:22.824Z,9.42
2022-09-28T10:12:50.867Z,9.51
2022-09-28T10:15:20.501Z,9.48
2022-09-28T10:17:46.757Z,9.46
2022-09-28T10:20:14.682Z,9.40
2022-09-28T10:22:40.969Z,9.39
2022-09-28T10:25:08.913Z,9.49
2022-09-28T10:27:36.392Z,9.36
2022-09-28T10:30:12.968Z,9.30
2022-09-28T10:32:40.880Z,9.30
2022-09-28T10:35:19.106Z,9.21
2022-09-28T10:37:55.015Z,9.12
2022-09-28T10:40:30.242Z,8.97
2022-09-28T10:43:07.892Z,8.97
2022-09-28T10:45:36.034Z,8.89
2022-09-28T10:48:07.066Z,8.82
2022-09-28T10:50:34.379Z,8.87
2022-09-28T10:53:20.405Z,8.76
2022-09-28T10:56:00.685Z,8.68
2022-09-28T10:58:29.052Z,8.64
2022-09-28T11:00:59.945Z,8.63
2022-09-28T11:03:27.729Z,8.65
2022-09-28T11:06:12.189Z,8.67
2022-09-28T11:08:40.173Z,8.76
2022-09-28T11:11:16.803Z,8.77
2022-09-28T11:13:45.471Z,8.84
2022-09-28T11:16:22.592Z,8.93
2022-09-28T11:18:49.126Z,8.93
2022-09-28T11:21:17.266Z,9.03
2022-09-28T11:23:55.639Z,9.03
2022-09-28T11:26:22.271Z,9.18
2022-09-28T11:28:52.919Z,9.23
2022-09-28T11:31:28.360Z,9.32
2022-09-28T11:34:02.624Z,9.28
2022-09-28T11:36:36.814Z,9.28
2022-09-28T11:39:09.243Z,9.30
2022-09-28T11:41:53.216Z,9.30
2022-09-28T11:44:22.585Z,9.34
2022-09-28T11:46:48.958Z,9.31
2022-09-28T11:49:22.830Z,9.35
2022-09-28T11:51:49.823Z,9.49
2022-09-28T11:54:39.175Z,9.53
2022-09-28T11:57:06.268Z,9.65
2022-09-28T12:00:01.758Z,9.74
2022-09-28T12:02:28.097Z,9.71
2022-09-28T12:05:00.424Z,9.70
2022-09-28T12:07:35.398Z,9.74
2022-09-28T12:10:20.251Z,9.73
2022-09-28T12:12:50.299Z,9.68
2022-09-28T12:15:21.694Z,9.78
2022-09-28T12:17:54.113Z,9.70
2022-09-28T12:20:24.352Z,9.71
2022-09-28T12:22:53.440Z,9.73
2022-09-28T12:25:22.444Z,9.80
2022-09-28T12:27:54.901Z,9.82
2022-09-28T12:30:27.486Z,10.04
2022-09-28T12:33:09.154Z,10.08
2022-09-28T12:35:47.298Z,10.20
2022-09-28T12:38:16.574Z,10.35
2022-09-28T12:40:52.689Z,10.81
2022-09-28T12:43:29.988Z,11.40
2022-09-28T12:46:11.945Z,11.82
2022-09-28T12:49:43.691Z,12.39
2022-09-28T12:52:04.616Z,12.84
2022-09-28T12:54:34.422Z,12.53
2022-09-28T12:57:19.745Z,12.38
2022-09-28T13:00:06.455Z,12.47
2022-09-28T13:02:51.786Z,12.25
2022-09-28T13:05:32.189Z,12.21
2022-09-28T13:08:17.303Z,12.39
2022-09-28T13:10:58.913Z,12.67
2022-09-28T13:13:25.666Z,12.70
2022-09-28T13:15:57.382Z,12.23
2022-09-28T13:18:36.866Z,11.91
2022-09-28T13:21:05.935Z,11.78
2022-09-28T13:23:35.453Z,11.60
2022-09-28T13:26:07.008Z,11.67
2022-09-28T13:28:33.893Z,11.75
2022-09-28T13:31:02.148Z,11.81
2022-09-28T13:33:33.709Z,11.77
2022-09-28T13:35:59.999Z,11.44
2022-09-28T13:38:30.326Z,11.16
2022-09-28T13:41:06.158Z,10.96
2022-09-28T13:43:53.478Z,11.11
2022-09-28T13:46:19.861Z,11.05
2022-09-28T13:48:51.226Z,11.14
2022-09-28T13:51:28.547Z,11.23
2022-09-28T13:54:02.499Z,11.62
2022-09-28T13:56:35.987Z,11.79
2022-09-28T13:59:17.003Z,11.79
2022-09-28T14:02:00.645Z,11.70
2022-09-28T14:04:48.241Z,11.46
2022-09-28T14:07:25.935Z,11.32
2022-09-28T14:10:14.539Z,11.21
2022-09-28T14:12:40.769Z,11.17
2022-09-28T14:15:27.033Z,11.10
2022-09-28T14:17:59.310Z,11.05
2022-09-28T14:20:27.105Z,11.03
2022-09-28T14:23:14.864Z,11.20
2022-09-28T14:25:44.402Z,11.27
2022-09-28T14:28:28.893Z,11.31
2022-09-28T14:30:58.764Z,11.41
2022-09-28T14:33:27.199Z,11.39
2022-09-28T14:35:58.233Z,11.49
2022-09-28T14:38:47.072Z,11.57
2022-09-28T14:41:27.036Z,11.76
2022-09-28T14:44:01.102Z,11.79
2022-09-28T14:46:29.372Z,11.92
2022-09-28T14:49:05.771Z,12.01
2022-09-28T14:51:33.863Z,11.99
2022-09-28T14:54:05.213Z,11.91
2022-09-28T14:56:33.336Z,12.00
2022-09-28T14:59:00.279Z,11.99
2022-09-28T15:01:26.569Z,11.90
2022-09-28T15:03:56.890Z,11.87
2022-09-28T15:06:23.958Z,11.76
2022-09-28T15:08:50.215Z,11.49
2022-09-28T15:11:24.159Z,11.42
2022-09-28T15:13:53.275Z,11.30
2022-09-28T15:16:23.392Z,11.13
2022-09-28T15:18:58.495Z,11.09
2022-09-28T15:21:31.647Z,11.03
2022-09-28T15:23:58.004Z,10.96
2022-09-28T15:26:31.650Z,10.89
2022-09-28T15:28:58.276Z,10.82
2022-09-28T15:31:26.562Z,10.82
2022-09-28T15:34:11.944Z,10.79
2022-09-28T15:36:42.117Z,10.75
2022-09-28T15:39:11.576Z,10.70
2022-09-28T15:41:38.075Z,10.61
2022-09-28T15:44:08.442Z,10.60
2022-09-28T15:46:37.270Z,10.53
2022-09-28T15:49:04.736Z,10.48
2022-09-28T15:51:32.388Z,10.39
2022-09-28T15:54:01.447Z,10.31
2022-09-28T15:56:28.550Z,10.20
2022-09-28T15:59:13.075Z,10.11
2022-09-28T16:01:40.310Z,10.04
2022-09-28T16:04:34.250Z,9.92
2022-09-28T16:07:12.832Z,9.84
2022-09-28T16:09:56.124Z,9.79
2022-09-28T16:12:23.911Z,9.69
2022-09-28T16:14:55.879Z,9.65
2022-09-28T16:17:32.472Z,9.59
2022-09-28T16:20:04.128Z,9.54
2022-09-28T16:22:32.673Z,9.51
2022-09-28T16:25:00.777Z,9.43
2022-09-28T16:27:28.776Z,9.36
2022-09-28T16:30:05.079Z,9.26
2022-09-28T16:32:35.251Z,9.19
2022-09-28T16:35:13.657Z,9.12
2022-09-28T16:37:42.609Z,9.02
2022-09-28T16:40:09.761Z,8.92
2022-09-28T16:42:36.812Z,8.83
2022-09-28T16:45:05.164Z,8.74
2022-09-28T16:47:34.964Z,8.64
2022-09-28T16:50:02.421Z,8.57
2022-09-28T16:52:47.493Z,8.45
2022-09-28T16:57:52.109Z,8.30
2022-09-28T17:00:23.391Z,8.18
2022-09-28T17:02:52.978Z,8.10
2022-09-28T17:05:20.482Z,8.01
2022-09-28T17:07:48.651Z,7.94
2022-09-28T17:10:17.445Z,7.84
2022-09-28T17:12:43.724Z,7.78
2022-09-28T17:15:10.000Z,7.72
2022-09-28T17:17:38.112Z,7.65
2022-09-28T17:20:25.360Z,7.63
2022-09-28T17:22:51.871Z,7.58
2022-09-28T17:25:18.357Z,7.48
2022-09-28T17:27:46.152Z,7.41
2022-09-28T17:30:13.279Z,7.35
2022-09-28T17:32:44.825Z,7.30
2022-09-28T17:35:24.148Z,7.21
2022-09-28T17:37:51.168Z,7.15
2022-09-28T17:40:21.830Z,7.10
2022-09-28T17:42:48.384Z,7.06
2022-09-28T17:45:16.042Z,7.05
2022-09-28T17:47:43.273Z,7.04
2022-09-28T17:50:23.937Z,7.01
2022-09-28T17:52:52.456Z,7.00
2022-09-28T17:55:23.168Z,6.97
2022-09-28T17:57:49.897Z,6.93
2022-09-28T18:00:17.506Z,6.89
2022-09-28T18:02:44.473Z,6.86
2022-09-28T18:05:13.086Z,6.80
2022-09-28T18:07:40.701Z,6.76
2022-09-28T18:10:30.638Z,6.71
2022-09-28T18:12:56.899Z,6.64
2022-09-28T18:15:23.153Z,6.56
2022-09-28T18:17:49.419Z,6.51
2022-09-28T18:20:15.761Z,6.47
2022-09-28T18:22:42.013Z,6.42
2022-09-28T18:25:08.749Z,6.40
2022-09-28T18:27:35.060Z,6.37
2022-09-28T18:30:01.742Z,6.32
2022-09-28T18:32:28.138Z,6.27
2022-09-28T18:34:54.433Z,6.23
2022-09-28T18:37:20.739Z,6.18
2022-09-28T18:39:47.019Z,6.14
2022-09-28T18:42:13.381Z,6.13
2022-09-28T18:44:39.624Z,6.12
2022-09-28T18:47:05.868Z,6.08
2022-09-28T18:49:33.515Z,6.04
2022-09-28T18:51:59.810Z,6.02
2022-09-28T18:54:27.789Z,5.99
2022-09-28T18:56:56.207Z,6.00
2022-09-28T18:59:23.319Z,5.96
2022-09-28T19:01:49.958Z,5.94
2022-09-28T19:04:16.359Z,5.88
2022-09-28T19:06:44.637Z,5.81
2022-09-28T19:09:11.135Z,5.78
2022-09-28T19:11:37.556Z,5.78
2022-09-28T19:14:03.835Z,5.77
2022-09-28T19:16:33.577Z,5.74
2022-09-28T19:19:01.295Z,5.71
2022-09-28T19:21:27.573Z,5.71
2022-09-28T19:23:55.285Z,5.72
2022-09-28T19:26:23.003Z,5.75
2022-09-28T19:28:49.501Z,5.75
2022-09-28T19:31:16.216Z,5.76
2022-09-28T19:33:42.567Z,5.75
2022-09-28T19:36:10.442Z,5.75
2022-09-28T19:38:37.626Z,5.74
2022-09-28T19:41:35.880Z,5.72
2022-09-28T19:44:06.721Z,5.73
2022-09-28T19:46:34.939Z,5.72
2022-09-28T19:49:05.070Z,5.73
2022-09-28T19:51:31.779Z,5.70
2022-09-28T19:53:58.440Z,5.69
2022-09-28T19:56:24.716Z,5.66
2022-09-28T19:58:50.960Z,5.67
2022-09-28T20:01:17.451Z,5.70
2022-09-28T20:03:43.901Z,5.68
2022-09-28T20:06:12.765Z,5.68
2022-09-28T20:08:44.208Z,5.69
2022-09-28T20:11:11.175Z,5.69
2022-09-28T20:13:37.820Z,5.68
2022-09-28T20:16:04.257Z,5.69
2022-09-28T20:18:34.372Z,5.69
2022-09-28T20:21:04.836Z,5.71
2022-09-28T20:23:31.425Z,5.70
2022-09-28T20:25:58.286Z,5.69
2022-09-28T20:28:24.816Z,5.69
2022-09-28T20:30:51.135Z,5.65
2022-09-28T20:33:27.490Z,5.61
2022-09-28T20:35:55.909Z,5.60
2022-09-28T20:38:23.600Z,5.64
2022-09-28T20:40:50.347Z,5.68
2022-09-28T20:43:16.625Z,5.71
2022-09-28T20:45:43.001Z,5.73
2022-09-28T20:48:09.301Z,5.76
2022-09-28T20:50:35.539Z,5.77
2022-09-28T20:53:01.832Z,5.77
2022-09-28T20:55:28.112Z,5.79
2022-09-28T20:57:54.356Z,5.79
2022-09-28T21:00:23.468Z,5.78
2022-09-28T21:02:51.264Z,5.77
2022-09-28T21:05:17.556Z,5.79
2022-09-28T21:07:43.799Z,5.78
2022-09-28T21:10:10.215Z,5.76
2022-09-28T21:12:37.166Z,5.76
2022-09-28T21:15:08.936Z,5.75
2022-09-28T21:17:35.204Z,5.74
2022-09-28T21:20:01.676Z,5.72
2022-09-28T21:22:28.719Z,5.72
2022-09-28T21:24:55.012Z,5.71
2022-09-28T21:27:21.332Z,5.68
2022-09-28T21:29:47.612Z,5.65
2022-09-28T21:32:13.943Z,5.66
2022-09-28T21:34:40.203Z,5.65
2022-09-28T21:37:06.458Z,5.64
2022-09-28T21:39:32.700Z,5.64
2022-09-28T21:41:58.977Z,5.62
2022-09-28T21:44:25.244Z,5.60
2022-09-28T21:46:51.606Z,5.60
2022-09-28T21:49:18.228Z,5.58
2022-09-28T21:51:46.365Z,5.57
2022-09-28T21:54:13.694Z,5.54
2022-09-28T21:56:40.005Z,5.52
2022-09-28T21:59:06.505Z,5.53
2022-09-28T22:01:32.820Z,5.52
2022-09-28T22:03:59.364Z,5.51
2022-09-28T22:06:29.641Z,5.49
2022-09-28T22:08:56.376Z,5.51
2022-09-28T22:11:23.815Z,5.50
2022-09-28T22:13:54.256Z,5.45
2022-09-28T22:16:21.898Z,5.40
2022-09-28T22:18:48.665Z,5.39
2022-09-28T22:21:19.805Z,5.36
2022-09-28T22:23:46.404Z,5.33
2022-09-28T22:26:17.958Z,5.32
2022-09-28T22:28:46.764Z,5.32
2022-09-28T22:31:13.494Z,5.29
2022-09-28T22:33:39.766Z,5.25
2022-09-28T22:36:07.838Z,5.28
2022-09-28T22:38:35.126Z,5.25
2022-09-28T22:41:03.603Z,5.23
2022-09-28T22:43:30.172Z,5.19
2022-09-28T22:46:03.468Z,5.18
2022-09-28T22:48:29.903Z,5.17
2022-09-28T22:50:56.260Z,5.15
2022-09-28T22:53:22.555Z,5.13
2022-09-28T22:55:48.808Z,5.14
2022-09-28T22:58:15.152Z,5.16
2022-09-28T23:00:41.701Z,5.19
2022-09-28T23:03:07.994Z,5.19
2022-09-28T23:05:34.354Z,5.18
2022-09-28T23:08:00.743Z,5.21
2022-09-28T23:10:27.120Z,5.24
2022-09-28T23:12:53.835Z,5.27
2022-09-28T23:15:21.509Z,5.30
2022-09-28T23:17:53.670Z,5.35
2022-09-28T23:20:23.696Z,5.42
2022-09-28T23:22:50.314Z,5.45
2022-09-28T23:25:17.655Z,5.46
2022-09-28T23:27:47.647Z,5.46
2022-09-28T23:30:15.070Z,5.50
2022-09-28T23:32:41.609Z,5.50
2022-09-28T23:35:08.530Z,5.54
2022-09-28T23:37:35.026Z,5.55
2022-09-28T23:40:02.836Z,5.53
2022-09-28T23:42:29.225Z,5.57
2022-09-28T23:44:55.477Z,5.61
2022-09-28T23:47:21.798Z,5.61
2022-09-28T23:49:48.056Z,5.61
2022-09-28T23:52:14.335Z,5.64
2022-09-28T23:54:40.601Z,5.64
2022-09-28T23:57:06.843Z,5.61
2022-09-28T23:59:33.084Z,5.61
